sensor_id;sensor_type;location;lat;lon;timestamp;P1;durP1;ratioP1;P2;durP2;ratioP2
22843;SDS011;11588;51.178;4.852;2024-03-02T00:00:30;2.08;;;0.50;;
22843;SDS011;11588;51.178;4.852;2024-03-02T00:02:57;0.98;;;0.57;;
22843;SDS011;11588;51.178;4.852;2024-03-02T00:05:24;1.13;;;0.50;;
22843;SDS011;11588;51.178;4.852;2024-03-02T00:10:32;0.85;;;0.50;;
22843;SDS011;11588;51.178;4.852;2024-03-02T00:13:03;1.42;;;0.55;;
22843;SDS011;11588;51.178;4.852;2024-03-02T00:17:56;0.98;;;0.68;;
22843;SDS011;11588;51.178;4.852;2024-03-02T00:20:25;1.65;;;0.60;;
22843;SDS011;11588;51.178;4.852;2024-03-02T00:22:57;2.67;;;0.60;;
22843;SDS011;11588;51.178;4.852;2024-03-02T00:25:35;0.60;;;0.40;;
22843;SDS011;11588;51.178;4.852;2024-03-02T00:28:17;0.77;;;0.50;;
22843;SDS011;11588;51.178;4.852;2024-03-02T00:33:12;2.88;;;0.80;;
22843;SDS011;11588;51.178;4.852;2024-03-02T00:35:39;4.28;;;0.68;;
22843;SDS011;11588;51.178;4.852;2024-03-02T00:38:05;2.50;;;0.70;;
22843;SDS011;11588;51.178;4.852;2024-03-02T00:40:32;1.42;;;0.73;;
22843;SDS011;11588;51.178;4.852;2024-03-02T00:42:59;1.88;;;0.77;;
22843;SDS011;11588;51.178;4.852;2024-03-02T00:45:25;1.30;;;0.70;;
22843;SDS011;11588;51.178;4.852;2024-03-02T00:47:52;1.35;;;0.77;;
22843;SDS011;11588;51.178;4.852;2024-03-02T00:50:19;1.73;;;0.65;;
22843;SDS011;11588;51.178;4.852;2024-03-02T00:52:46;1.30;;;0.70;;
22843;SDS011;11588;51.178;4.852;2024-03-02T00:55:14;1.30;;;0.75;;
22843;SDS011;11588;51.178;4.852;2024-03-02T00:57:41;1.40;;;0.70;;
22843;SDS011;11588;51.178;4.852;2024-03-02T01:00:08;1.20;;;0.70;;
22843;SDS011;11588;51.178;4.852;2024-03-02T01:02:37;0.80;;;0.60;;
22843;SDS011;11588;51.178;4.852;2024-03-02T01:05:04;1.55;;;0.80;;
22843;SDS011;11588;51.178;4.852;2024-03-02T01:07:31;1.40;;;0.70;;
22843;SDS011;11588;51.178;4.852;2024-03-02T01:09:58;0.93;;;0.50;;
22843;SDS011;11588;51.178;4.852;2024-03-02T01:12:25;0.88;;;0.60;;
22843;SDS011;11588;51.178;4.852;2024-03-02T01:14:51;1.52;;;0.60;;
22843;SDS011;11588;51.178;4.852;2024-03-02T01:17:18;1.88;;;0.60;;
22843;SDS011;11588;51.178;4.852;2024-03-02T01:19:45;1.00;;;0.70;;
22843;SDS011;11588;51.178;4.852;2024-03-02T01:22:11;0.60;;;0.40;;
22843;SDS011;11588;51.178;4.852;2024-03-02T01:24:39;1.70;;;0.50;;
22843;SDS011;11588;51.178;4.852;2024-03-02T01:27:05;1.30;;;0.60;;
22843;SDS011;11588;51.178;4.852;2024-03-02T01:29:32;2.97;;;0.77;;
22843;SDS011;11588;51.178;4.852;2024-03-02T01:31:59;1.48;;;0.65;;
22843;SDS011;11588;51.178;4.852;2024-03-02T01:34:26;1.42;;;0.60;;
22843;SDS011;11588;51.178;4.852;2024-03-02T01:36:53;1.40;;;0.60;;
22843;SDS011;11588;51.178;4.852;2024-03-02T01:39:19;1.40;;;0.65;;
22843;SDS011;11588;51.178;4.852;2024-03-02T01:41:46;0.75;;;0.40;;
22843;SDS011;11588;51.178;4.852;2024-03-02T01:44:13;1.30;;;0.50;;
22843;SDS011;11588;51.178;4.852;2024-03-02T01:46:39;1.55;;;0.70;;
22843;SDS011;11588;51.178;4.852;2024-03-02T01:49:06;2.58;;;0.60;;
22843;SDS011;11588;51.178;4.852;2024-03-02T01:51:33;1.23;;;0.40;;
22843;SDS011;11588;51.178;4.852;2024-03-02T01:54:00;2.25;;;0.60;;
22843;SDS011;11588;51.178;4.852;2024-03-02T01:56:27;0.82;;;0.60;;
22843;SDS011;11588;51.178;4.852;2024-03-02T01:58:54;0.80;;;0.63;;
22843;SDS011;11588;51.178;4.852;2024-03-02T02:01:20;0.95;;;0.60;;
22843;SDS011;11588;51.178;4.852;2024-03-02T02:03:47;2.25;;;0.45;;
22843;SDS011;11588;51.178;4.852;2024-03-02T02:06:14;1.25;;;0.60;;
22843;SDS011;11588;51.178;4.852;2024-03-02T02:08:40;0.82;;;0.40;;
22843;SDS011;11588;51.178;4.852;2024-03-02T02:11:07;1.30;;;0.75;;
22843;SDS011;11588;51.178;4.852;2024-03-02T02:13:34;0.88;;;0.50;;
22843;SDS011;11588;51.178;4.852;2024-03-02T02:16:05;2.03;;;0.50;;
22843;SDS011;11588;51.178;4.852;2024-03-02T02:18:35;2.20;;;0.47;;
22843;SDS011;11588;51.178;4.852;2024-03-02T02:21:02;1.15;;;0.63;;
22843;SDS011;11588;51.178;4.852;2024-03-02T02:23:29;1.90;;;0.50;;
22843;SDS011;11588;51.178;4.852;2024-03-02T02:25:56;1.27;;;0.55;;
22843;SDS011;11588;51.178;4.852;2024-03-02T02:28:23;1.20;;;0.60;;
22843;SDS011;11588;51.178;4.852;2024-03-02T02:30:54;3.60;;;0.68;;
22843;SDS011;11588;51.178;4.852;2024-03-02T02:33:22;2.75;;;0.60;;
22843;SDS011;11588;51.178;4.852;2024-03-02T02:35:49;1.02;;;0.55;;
22843;SDS011;11588;51.178;4.852;2024-03-02T02:38:16;2.35;;;0.50;;
22843;SDS011;11588;51.178;4.852;2024-03-02T02:40:42;2.08;;;0.50;;
22843;SDS011;11588;51.178;4.852;2024-03-02T02:43:09;2.05;;;0.60;;
22843;SDS011;11588;51.178;4.852;2024-03-02T02:45:35;1.08;;;0.60;;
22843;SDS011;11588;51.178;4.852;2024-03-02T02:48:02;3.20;;;0.70;;
22843;SDS011;11588;51.178;4.852;2024-03-02T02:50:29;1.70;;;0.57;;
22843;SDS011;11588;51.178;4.852;2024-03-02T02:52:56;1.35;;;0.50;;
22843;SDS011;11588;51.178;4.852;2024-03-02T02:55:23;3.55;;;0.60;;
22843;SDS011;11588;51.178;4.852;2024-03-02T02:57:49;2.53;;;0.60;;
22843;SDS011;11588;51.178;4.852;2024-03-02T03:00:16;1.67;;;0.63;;
22843;SDS011;11588;51.178;4.852;2024-03-02T03:02:46;2.15;;;0.60;;
22843;SDS011;11588;51.178;4.852;2024-03-02T03:05:13;1.27;;;0.50;;
22843;SDS011;11588;51.178;4.852;2024-03-02T03:07:41;2.63;;;0.60;;
22843;SDS011;11588;51.178;4.852;2024-03-02T03:10:08;1.67;;;0.70;;
22843;SDS011;11588;51.178;4.852;2024-03-02T03:12:34;1.73;;;0.57;;
22843;SDS011;11588;51.178;4.852;2024-03-02T03:15:01;1.83;;;0.47;;
22843;SDS011;11588;51.178;4.852;2024-03-02T03:17:29;1.30;;;0.30;;
22843;SDS011;11588;51.178;4.852;2024-03-02T03:19:58;2.10;;;0.40;;
22843;SDS011;11588;51.178;4.852;2024-03-02T03:22:25;2.22;;;0.50;;
22843;SDS011;11588;51.178;4.852;2024-03-02T03:24:52;3.00;;;0.57;;
22843;SDS011;11588;51.178;4.852;2024-03-02T03:27:18;2.67;;;0.50;;
22843;SDS011;11588;51.178;4.852;2024-03-02T03:29:46;1.70;;;0.50;;
22843;SDS011;11588;51.178;4.852;2024-03-02T03:32:13;2.67;;;0.63;;
22843;SDS011;11588;51.178;4.852;2024-03-02T03:34:43;1.52;;;0.50;;
22843;SDS011;11588;51.178;4.852;2024-03-02T03:37:10;2.25;;;0.50;;
22843;SDS011;11588;51.178;4.852;2024-03-02T03:39:37;1.73;;;0.40;;
22843;SDS011;11588;51.178;4.852;2024-03-02T03:42:04;1.63;;;0.40;;
22843;SDS011;11588;51.178;4.852;2024-03-02T03:44:30;2.85;;;0.65;;
22843;SDS011;11588;51.178;4.852;2024-03-02T03:46:57;1.42;;;0.45;;
22843;SDS011;11588;51.178;4.852;2024-03-02T03:49:24;2.83;;;0.60;;
22843;SDS011;11588;51.178;4.852;2024-03-02T03:51:51;3.20;;;0.77;;
22843;SDS011;11588;51.178;4.852;2024-03-02T03:54:20;3.08;;;0.63;;
22843;SDS011;11588;51.178;4.852;2024-03-02T03:56:47;3.17;;;0.75;;
22843;SDS011;11588;51.178;4.852;2024-03-02T03:59:14;1.48;;;0.50;;
22843;SDS011;11588;51.178;4.852;2024-03-02T04:01:43;1.52;;;0.80;;
22843;SDS011;11588;51.178;4.852;2024-03-02T04:04:10;2.67;;;0.57;;
22843;SDS011;11588;51.178;4.852;2024-03-02T04:06:37;2.40;;;0.68;;
22843;SDS011;11588;51.178;4.852;2024-03-02T04:09:03;2.75;;;1.02;;
22843;SDS011;11588;51.178;4.852;2024-03-02T04:11:30;2.83;;;0.52;;
22843;SDS011;11588;51.178;4.852;2024-03-02T04:13:57;2.85;;;0.57;;
22843;SDS011;11588;51.178;4.852;2024-03-02T04:16:24;1.25;;;0.50;;
22843;SDS011;11588;51.178;4.852;2024-03-02T04:18:50;1.98;;;0.52;;
22843;SDS011;11588;51.178;4.852;2024-03-02T04:21:17;4.97;;;0.60;;
22843;SDS011;11588;51.178;4.852;2024-03-02T04:23:44;4.28;;;0.95;;
22843;SDS011;11588;51.178;4.852;2024-03-02T04:26:10;2.42;;;0.60;;
22843;SDS011;11588;51.178;4.852;2024-03-02T04:28:37;1.85;;;0.55;;
22843;SDS011;11588;51.178;4.852;2024-03-02T04:31:04;2.25;;;0.63;;
22843;SDS011;11588;51.178;4.852;2024-03-02T04:33:31;1.42;;;0.70;;
22843;SDS011;11588;51.178;4.852;2024-03-02T04:35:57;2.55;;;0.70;;
22843;SDS011;11588;51.178;4.852;2024-03-02T04:38:24;3.28;;;0.70;;
22843;SDS011;11588;51.178;4.852;2024-03-02T04:40:51;2.05;;;0.52;;
22843;SDS011;11588;51.178;4.852;2024-03-02T04:43:17;3.00;;;0.60;;
22843;SDS011;11588;51.178;4.852;2024-03-02T04:45:45;2.90;;;0.65;;
22843;SDS011;11588;51.178;4.852;2024-03-02T04:48:12;3.42;;;0.77;;
22843;SDS011;11588;51.178;4.852;2024-03-02T04:50:39;5.10;;;1.20;;
22843;SDS011;11588;51.178;4.852;2024-03-02T04:53:06;1.85;;;0.70;;
22843;SDS011;11588;51.178;4.852;2024-03-02T04:55:33;1.92;;;0.70;;
22843;SDS011;11588;51.178;4.852;2024-03-02T04:58:20;3.60;;;1.13;;
22843;SDS011;11588;51.178;4.852;2024-03-02T05:00:46;2.50;;;0.90;;
22843;SDS011;11588;51.178;4.852;2024-03-02T05:03:13;3.20;;;0.70;;
22843;SDS011;11588;51.178;4.852;2024-03-02T05:05:40;5.35;;;0.60;;
22843;SDS011;11588;51.178;4.852;2024-03-02T05:08:10;4.45;;;0.77;;
22843;SDS011;11588;51.178;4.852;2024-03-02T05:10:38;2.33;;;0.65;;
22843;SDS011;11588;51.178;4.852;2024-03-02T05:13:05;3.08;;;0.60;;
22843;SDS011;11588;51.178;4.852;2024-03-02T05:15:31;2.20;;;0.60;;
22843;SDS011;11588;51.178;4.852;2024-03-02T05:17:58;4.18;;;0.80;;
22843;SDS011;11588;51.178;4.852;2024-03-02T05:20:26;3.60;;;0.80;;
22843;SDS011;11588;51.178;4.852;2024-03-02T05:22:52;4.00;;;1.02;;
22843;SDS011;11588;51.178;4.852;2024-03-02T05:25:19;1.55;;;0.75;;
22843;SDS011;11588;51.178;4.852;2024-03-02T05:27:46;4.50;;;0.60;;
22843;SDS011;11588;51.178;4.852;2024-03-02T05:30:13;4.93;;;0.73;;
22843;SDS011;11588;51.178;4.852;2024-03-02T05:32:40;3.90;;;1.10;;
22843;SDS011;11588;51.178;4.852;2024-03-02T05:35:07;4.45;;;0.90;;
22843;SDS011;11588;51.178;4.852;2024-03-02T05:37:34;4.30;;;1.10;;
22843;SDS011;11588;51.178;4.852;2024-03-02T05:40:01;1.83;;;0.68;;
22843;SDS011;11588;51.178;4.852;2024-03-02T05:42:28;6.70;;;1.05;;
22843;SDS011;11588;51.178;4.852;2024-03-02T05:44:54;3.58;;;0.70;;
22843;SDS011;11588;51.178;4.852;2024-03-02T05:47:21;4.30;;;0.60;;
22843;SDS011;11588;51.178;4.852;2024-03-02T05:49:48;3.90;;;0.90;;
22843;SDS011;11588;51.178;4.852;2024-03-02T05:52:14;2.92;;;0.70;;
22843;SDS011;11588;51.178;4.852;2024-03-02T05:54:41;2.40;;;0.63;;
22843;SDS011;11588;51.178;4.852;2024-03-02T05:57:08;2.53;;;0.77;;
22843;SDS011;11588;51.178;4.852;2024-03-02T05:59:42;3.10;;;0.80;;
22843;SDS011;11588;51.178;4.852;2024-03-02T06:02:10;5.05;;;1.27;;
22843;SDS011;11588;51.178;4.852;2024-03-02T06:04:37;3.60;;;1.27;;
22843;SDS011;11588;51.178;4.852;2024-03-02T06:07:04;1.70;;;0.75;;
22843;SDS011;11588;51.178;4.852;2024-03-02T06:09:30;4.13;;;1.42;;
22843;SDS011;11588;51.178;4.852;2024-03-02T06:11:57;1.90;;;0.80;;
22843;SDS011;11588;51.178;4.852;2024-03-02T06:14:24;5.45;;;0.95;;
22843;SDS011;11588;51.178;4.852;2024-03-02T06:16:50;6.15;;;1.15;;
22843;SDS011;11588;51.178;4.852;2024-03-02T06:19:17;4.30;;;1.17;;
22843;SDS011;11588;51.178;4.852;2024-03-02T06:21:44;4.60;;;1.27;;
22843;SDS011;11588;51.178;4.852;2024-03-02T06:24:11;6.10;;;1.20;;
22843;SDS011;11588;51.178;4.852;2024-03-02T06:26:37;4.63;;;1.23;;
22843;SDS011;11588;51.178;4.852;2024-03-02T06:29:05;5.40;;;1.20;;
22843;SDS011;11588;51.178;4.852;2024-03-02T06:31:32;4.18;;;1.10;;
22843;SDS011;11588;51.178;4.852;2024-03-02T06:33:59;3.45;;;1.00;;
22843;SDS011;11588;51.178;4.852;2024-03-02T06:36:26;4.85;;;1.20;;
22843;SDS011;11588;51.178;4.852;2024-03-02T06:38:52;3.38;;;0.73;;
22843;SDS011;11588;51.178;4.852;2024-03-02T06:41:19;5.43;;;1.75;;
22843;SDS011;11588;51.178;4.852;2024-03-02T06:43:46;5.55;;;1.52;;
22843;SDS011;11588;51.178;4.852;2024-03-02T06:46:12;2.97;;;1.10;;
22843;SDS011;11588;51.178;4.852;2024-03-02T06:48:41;6.30;;;1.02;;
22843;SDS011;11588;51.178;4.852;2024-03-02T06:51:08;5.65;;;0.95;;
22843;SDS011;11588;51.178;4.852;2024-03-02T06:53:34;5.28;;;1.27;;
22843;SDS011;11588;51.178;4.852;2024-03-02T06:56:01;3.50;;;1.20;;
22843;SDS011;11588;51.178;4.852;2024-03-02T06:58:28;4.75;;;1.13;;
22843;SDS011;11588;51.178;4.852;2024-03-02T07:00:54;4.15;;;1.05;;
22843;SDS011;11588;51.178;4.852;2024-03-02T07:03:21;2.10;;;0.82;;
22843;SDS011;11588;51.178;4.852;2024-03-02T07:05:48;4.40;;;0.95;;
22843;SDS011;11588;51.178;4.852;2024-03-02T07:08:14;3.25;;;0.80;;
22843;SDS011;11588;51.178;4.852;2024-03-02T07:10:41;6.32;;;1.20;;
22843;SDS011;11588;51.178;4.852;2024-03-02T07:13:08;3.22;;;0.93;;
22843;SDS011;11588;51.178;4.852;2024-03-02T07:15:34;2.67;;;0.80;;
22843;SDS011;11588;51.178;4.852;2024-03-02T07:18:11;2.33;;;0.90;;
22843;SDS011;11588;51.178;4.852;2024-03-02T07:20:38;4.10;;;1.48;;
22843;SDS011;11588;51.178;4.852;2024-03-02T07:23:04;6.25;;;1.00;;
22843;SDS011;11588;51.178;4.852;2024-03-02T07:25:30;3.58;;;0.90;;
22843;SDS011;11588;51.178;4.852;2024-03-02T07:27:57;4.22;;;1.30;;
22843;SDS011;11588;51.178;4.852;2024-03-02T07:30:24;7.63;;;1.45;;
22843;SDS011;11588;51.178;4.852;2024-03-02T07:32:51;6.75;;;1.08;;
22843;SDS011;11588;51.178;4.852;2024-03-02T07:35:17;5.43;;;0.88;;
22843;SDS011;11588;51.178;4.852;2024-03-02T07:37:44;4.57;;;1.27;;
22843;SDS011;11588;51.178;4.852;2024-03-02T07:40:11;2.90;;;1.00;;
22843;SDS011;11588;51.178;4.852;2024-03-02T07:42:38;2.20;;;0.82;;
22843;SDS011;11588;51.178;4.852;2024-03-02T07:45:05;6.15;;;1.17;;
22843;SDS011;11588;51.178;4.852;2024-03-02T07:47:33;4.35;;;1.20;;
22843;SDS011;11588;51.178;4.852;2024-03-02T07:50:00;2.17;;;0.75;;
22843;SDS011;11588;51.178;4.852;2024-03-02T07:52:27;6.50;;;0.95;;
22843;SDS011;11588;51.178;4.852;2024-03-02T07:54:54;4.68;;;1.10;;
22843;SDS011;11588;51.178;4.852;2024-03-02T07:57:21;5.32;;;1.20;;
22843;SDS011;11588;51.178;4.852;2024-03-02T07:59:48;5.63;;;1.08;;
22843;SDS011;11588;51.178;4.852;2024-03-02T08:02:15;4.63;;;1.17;;
22843;SDS011;11588;51.178;4.852;2024-03-02T08:04:45;5.75;;;1.52;;
22843;SDS011;11588;51.178;4.852;2024-03-02T08:07:12;7.20;;;1.60;;
22843;SDS011;11588;51.178;4.852;2024-03-02T08:09:39;10.38;;;1.90;;
22843;SDS011;11588;51.178;4.852;2024-03-02T08:12:06;4.88;;;1.20;;
22843;SDS011;11588;51.178;4.852;2024-03-02T08:14:33;6.95;;;1.00;;
22843;SDS011;11588;51.178;4.852;2024-03-02T08:17:00;5.80;;;0.90;;
22843;SDS011;11588;51.178;4.852;2024-03-02T08:19:28;6.05;;;1.13;;
22843;SDS011;11588;51.178;4.852;2024-03-02T08:21:55;4.88;;;1.55;;
22843;SDS011;11588;51.178;4.852;2024-03-02T08:24:21;7.13;;;1.00;;
22843;SDS011;11588;51.178;4.852;2024-03-02T08:26:48;7.85;;;1.08;;
22843;SDS011;11588;51.178;4.852;2024-03-02T08:29:15;4.32;;;1.05;;
22843;SDS011;11588;51.178;4.852;2024-03-02T08:31:44;7.50;;;1.08;;
22843;SDS011;11588;51.178;4.852;2024-03-02T08:34:11;5.60;;;1.40;;
22843;SDS011;11588;51.178;4.852;2024-03-02T08:36:37;7.20;;;1.45;;
22843;SDS011;11588;51.178;4.852;2024-03-02T08:39:04;4.90;;;1.20;;
22843;SDS011;11588;51.178;4.852;2024-03-02T08:41:34;4.05;;;1.15;;
22843;SDS011;11588;51.178;4.852;2024-03-02T08:44:00;6.90;;;1.08;;
22843;SDS011;11588;51.178;4.852;2024-03-02T08:46:27;7.50;;;0.90;;
22843;SDS011;11588;51.178;4.852;2024-03-02T08:48:54;7.78;;;1.20;;
22843;SDS011;11588;51.178;4.852;2024-03-02T08:51:21;5.75;;;1.10;;
22843;SDS011;11588;51.178;4.852;2024-03-02T08:53:47;4.63;;;1.05;;
22843;SDS011;11588;51.178;4.852;2024-03-02T08:56:14;9.57;;;1.25;;
22843;SDS011;11588;51.178;4.852;2024-03-02T08:58:43;5.60;;;1.10;;
22843;SDS011;11588;51.178;4.852;2024-03-02T09:01:10;7.75;;;0.98;;
22843;SDS011;11588;51.178;4.852;2024-03-02T09:03:39;6.03;;;1.10;;
22843;SDS011;11588;51.178;4.852;2024-03-02T09:06:06;4.35;;;1.48;;
22843;SDS011;11588;51.178;4.852;2024-03-02T09:08:33;6.18;;;1.58;;
22843;SDS011;11588;51.178;4.852;2024-03-02T09:11:02;7.85;;;1.10;;
22843;SDS011;11588;51.178;4.852;2024-03-02T09:13:29;6.35;;;1.20;;
22843;SDS011;11588;51.178;4.852;2024-03-02T09:15:56;6.68;;;1.00;;
22843;SDS011;11588;51.178;4.852;2024-03-02T09:18:23;5.95;;;1.10;;
22843;SDS011;11588;51.178;4.852;2024-03-02T09:20:52;7.43;;;1.20;;
22843;SDS011;11588;51.178;4.852;2024-03-02T09:23:19;5.88;;;1.20;;
22843;SDS011;11588;51.178;4.852;2024-03-02T09:25:46;4.60;;;1.13;;
22843;SDS011;11588;51.178;4.852;2024-03-02T09:28:13;7.32;;;1.30;;
22843;SDS011;11588;51.178;4.852;2024-03-02T09:30:41;7.82;;;1.00;;
22843;SDS011;11588;51.178;4.852;2024-03-02T09:33:08;5.78;;;1.00;;
22843;SDS011;11588;51.178;4.852;2024-03-02T09:35:34;10.57;;;1.02;;
22843;SDS011;11588;51.178;4.852;2024-03-02T09:38:01;8.95;;;1.08;;
22843;SDS011;11588;51.178;4.852;2024-03-02T09:40:30;5.20;;;1.05;;
22843;SDS011;11588;51.178;4.852;2024-03-02T09:42:56;6.65;;;1.27;;
22843;SDS011;11588;51.178;4.852;2024-03-02T09:45:24;6.35;;;0.90;;
22843;SDS011;11588;51.178;4.852;2024-03-02T09:47:51;7.80;;;1.15;;
22843;SDS011;11588;51.178;4.852;2024-03-02T09:50:17;6.30;;;1.05;;
22843;SDS011;11588;51.178;4.852;2024-03-02T09:52:47;7.85;;;1.30;;
22843;SDS011;11588;51.178;4.852;2024-03-02T09:55:17;5.78;;;1.00;;
22843;SDS011;11588;51.178;4.852;2024-03-02T09:57:45;9.77;;;1.45;;
22843;SDS011;11588;51.178;4.852;2024-03-02T10:00:12;6.60;;;1.10;;
22843;SDS011;11588;51.178;4.852;2024-03-02T10:02:41;4.85;;;0.90;;
22843;SDS011;11588;51.178;4.852;2024-03-02T10:05:09;6.40;;;1.35;;
22843;SDS011;11588;51.178;4.852;2024-03-02T10:07:37;10.57;;;1.33;;
22843;SDS011;11588;51.178;4.852;2024-03-02T10:12:41;4.65;;;0.93;;
22843;SDS011;11588;51.178;4.852;2024-03-02T10:15:08;7.38;;;1.30;;
22843;SDS011;11588;51.178;4.852;2024-03-02T10:17:35;9.43;;;1.45;;
22843;SDS011;11588;51.178;4.852;2024-03-02T10:22:39;8.15;;;1.20;;
22843;SDS011;11588;51.178;4.852;2024-03-02T10:25:06;8.85;;;1.30;;
22843;SDS011;11588;51.178;4.852;2024-03-02T10:27:33;5.10;;;1.00;;
22843;SDS011;11588;51.178;4.852;2024-03-02T10:30:02;6.47;;;1.00;;
22843;SDS011;11588;51.178;4.852;2024-03-02T10:32:29;5.57;;;1.10;;
22843;SDS011;11588;51.178;4.852;2024-03-02T10:34:56;6.35;;;1.35;;
22843;SDS011;11588;51.178;4.852;2024-03-02T10:37:23;10.55;;;1.20;;
22843;SDS011;11588;51.178;4.852;2024-03-02T10:39:51;7.07;;;2.13;;
22843;SDS011;11588;51.178;4.852;2024-03-02T10:42:18;9.45;;;1.13;;
22843;SDS011;11588;51.178;4.852;2024-03-02T10:44:45;6.72;;;1.17;;
22843;SDS011;11588;51.178;4.852;2024-03-02T10:47:13;7.68;;;1.70;;
22843;SDS011;11588;51.178;4.852;2024-03-02T10:49:40;7.60;;;1.45;;
22843;SDS011;11588;51.178;4.852;2024-03-02T10:52:11;4.53;;;1.00;;
22843;SDS011;11588;51.178;4.852;2024-03-02T10:54:37;5.50;;;0.93;;
22843;SDS011;11588;51.178;4.852;2024-03-02T10:57:07;4.88;;;0.90;;
22843;SDS011;11588;51.178;4.852;2024-03-02T10:59:35;6.10;;;0.90;;
22843;SDS011;11588;51.178;4.852;2024-03-02T11:02:03;5.68;;;1.00;;
22843;SDS011;11588;51.178;4.852;2024-03-02T11:04:31;5.97;;;1.10;;
22843;SDS011;11588;51.178;4.852;2024-03-02T11:09:38;6.95;;;1.42;;
22843;SDS011;11588;51.178;4.852;2024-03-02T11:12:09;6.03;;;1.13;;
22843;SDS011;11588;51.178;4.852;2024-03-02T11:14:40;4.88;;;1.00;;
22843;SDS011;11588;51.178;4.852;2024-03-02T11:17:10;8.93;;;1.10;;
22843;SDS011;11588;51.178;4.852;2024-03-02T11:19:38;13.55;;;1.48;;
22843;SDS011;11588;51.178;4.852;2024-03-02T11:22:05;8.63;;;1.10;;
22843;SDS011;11588;51.178;4.852;2024-03-02T11:24:32;4.65;;;0.88;;
22843;SDS011;11588;51.178;4.852;2024-03-02T11:26:59;6.72;;;1.48;;
22843;SDS011;11588;51.178;4.852;2024-03-02T11:32:03;5.60;;;1.20;;
22843;SDS011;11588;51.178;4.852;2024-03-02T11:34:30;7.10;;;1.10;;
22843;SDS011;11588;51.178;4.852;2024-03-02T11:36:57;4.47;;;1.10;;
22843;SDS011;11588;51.178;4.852;2024-03-02T11:39:26;5.70;;;1.10;;
22843;SDS011;11588;51.178;4.852;2024-03-02T11:41:53;4.97;;;0.93;;
22843;SDS011;11588;51.178;4.852;2024-03-02T11:44:20;4.18;;;0.90;;
22843;SDS011;11588;51.178;4.852;2024-03-02T11:46:51;4.15;;;1.23;;
22843;SDS011;11588;51.178;4.852;2024-03-02T11:49:36;7.82;;;1.10;;
22843;SDS011;11588;51.178;4.852;2024-03-02T11:52:06;5.10;;;0.70;;
22843;SDS011;11588;51.178;4.852;2024-03-02T11:54:33;5.07;;;1.20;;
22843;SDS011;11588;51.178;4.852;2024-03-02T11:57:02;4.25;;;1.17;;
22843;SDS011;11588;51.178;4.852;2024-03-02T11:59:29;7.30;;;1.15;;
22843;SDS011;11588;51.178;4.852;2024-03-02T12:01:56;6.63;;;0.98;;
22843;SDS011;11588;51.178;4.852;2024-03-02T12:04:24;8.10;;;1.30;;
22843;SDS011;11588;51.178;4.852;2024-03-02T12:06:54;5.05;;;1.55;;
22843;SDS011;11588;51.178;4.852;2024-03-02T12:09:22;4.95;;;1.13;;
22843;SDS011;11588;51.178;4.852;2024-03-02T12:12:00;4.72;;;0.90;;
22843;SDS011;11588;51.178;4.852;2024-03-02T12:14:30;3.70;;;0.85;;
22843;SDS011;11588;51.178;4.852;2024-03-02T12:16:57;5.68;;;1.23;;
22843;SDS011;11588;51.178;4.852;2024-03-02T12:19:25;6.82;;;1.23;;
22843;SDS011;11588;51.178;4.852;2024-03-02T12:21:53;4.28;;;1.10;;
22843;SDS011;11588;51.178;4.852;2024-03-02T12:24:21;5.97;;;1.10;;
22843;SDS011;11588;51.178;4.852;2024-03-02T12:26:50;4.38;;;0.80;;
22843;SDS011;11588;51.178;4.852;2024-03-02T12:29:18;4.78;;;1.08;;
22843;SDS011;11588;51.178;4.852;2024-03-02T12:31:45;4.47;;;1.13;;
22843;SDS011;11588;51.178;4.852;2024-03-02T12:34:14;5.40;;;1.27;;
22843;SDS011;11588;51.178;4.852;2024-03-02T12:36:41;2.45;;;0.68;;
22843;SDS011;11588;51.178;4.852;2024-03-02T12:39:09;5.95;;;1.27;;
22843;SDS011;11588;51.178;4.852;2024-03-02T12:41:36;4.82;;;1.02;;
22843;SDS011;11588;51.178;4.852;2024-03-02T12:44:07;5.18;;;1.10;;
22843;SDS011;11588;51.178;4.852;2024-03-02T12:46:33;3.78;;;1.15;;
22843;SDS011;11588;51.178;4.852;2024-03-02T12:49:07;4.78;;;0.88;;
22843;SDS011;11588;51.178;4.852;2024-03-02T12:51:37;5.82;;;1.00;;
22843;SDS011;11588;51.178;4.852;2024-03-02T12:54:07;3.55;;;1.00;;
22843;SDS011;11588;51.178;4.852;2024-03-02T12:56:35;3.78;;;0.90;;
22843;SDS011;11588;51.178;4.852;2024-03-02T12:59:02;5.13;;;1.17;;
22843;SDS011;11588;51.178;4.852;2024-03-02T13:01:29;5.68;;;1.00;;
22843;SDS011;11588;51.178;4.852;2024-03-02T13:03:55;6.07;;;1.00;;
22843;SDS011;11588;51.178;4.852;2024-03-02T13:06:23;6.38;;;1.02;;
22843;SDS011;11588;51.178;4.852;2024-03-02T13:08:50;5.05;;;0.93;;
22843;SDS011;11588;51.178;4.852;2024-03-02T13:11:17;4.90;;;0.90;;
22843;SDS011;11588;51.178;4.852;2024-03-02T13:13:44;2.85;;;0.80;;
22843;SDS011;11588;51.178;4.852;2024-03-02T13:16:11;5.55;;;0.90;;
22843;SDS011;11588;51.178;4.852;2024-03-02T13:18:39;4.55;;;0.80;;
22843;SDS011;11588;51.178;4.852;2024-03-02T13:21:07;2.67;;;0.77;;
22843;SDS011;11588;51.178;4.852;2024-03-02T13:23:34;4.70;;;1.10;;
22843;SDS011;11588;51.178;4.852;2024-03-02T13:26:01;2.70;;;0.77;;
22843;SDS011;11588;51.178;4.852;2024-03-02T13:28:27;5.85;;;1.23;;
22843;SDS011;11588;51.178;4.852;2024-03-02T13:30:54;2.70;;;0.77;;
22843;SDS011;11588;51.178;4.852;2024-03-02T13:33:21;4.28;;;0.90;;
22843;SDS011;11588;51.178;4.852;2024-03-02T13:35:49;5.53;;;0.90;;
22843;SDS011;11588;51.178;4.852;2024-03-02T13:38:18;4.13;;;0.80;;
22843;SDS011;11588;51.178;4.852;2024-03-02T13:40:45;4.97;;;0.80;;
22843;SDS011;11588;51.178;4.852;2024-03-02T13:43:12;6.63;;;0.82;;
22843;SDS011;11588;51.178;4.852;2024-03-02T13:45:39;3.92;;;0.82;;
22843;SDS011;11588;51.178;4.852;2024-03-02T13:48:06;5.40;;;0.60;;
22843;SDS011;11588;51.178;4.852;2024-03-02T13:50:32;3.85;;;0.90;;
22843;SDS011;11588;51.178;4.852;2024-03-02T13:52:59;5.90;;;1.40;;
22843;SDS011;11588;51.178;4.852;2024-03-02T13:55:26;4.10;;;1.13;;
22843;SDS011;11588;51.178;4.852;2024-03-02T13:57:53;4.35;;;0.90;;
22843;SDS011;11588;51.178;4.852;2024-03-02T14:00:19;4.28;;;0.70;;
22843;SDS011;11588;51.178;4.852;2024-03-02T14:02:46;3.50;;;0.82;;
22843;SDS011;11588;51.178;4.852;2024-03-02T14:05:16;3.20;;;0.80;;
22843;SDS011;11588;51.178;4.852;2024-03-02T14:07:43;4.45;;;0.98;;
22843;SDS011;11588;51.178;4.852;2024-03-02T14:10:10;3.55;;;0.90;;
22843;SDS011;11588;51.178;4.852;2024-03-02T14:12:37;5.18;;;0.80;;
22843;SDS011;11588;51.178;4.852;2024-03-02T14:15:07;6.00;;;0.98;;
22843;SDS011;11588;51.178;4.852;2024-03-02T14:17:34;3.53;;;0.80;;
22843;SDS011;11588;51.178;4.852;2024-03-02T14:20:00;3.90;;;1.05;;
22843;SDS011;11588;51.178;4.852;2024-03-02T14:22:27;2.35;;;0.70;;
22843;SDS011;11588;51.178;4.852;2024-03-02T14:24:54;3.03;;;0.85;;
22843;SDS011;11588;51.178;4.852;2024-03-02T14:27:20;3.85;;;0.90;;
22843;SDS011;11588;51.178;4.852;2024-03-02T14:29:47;5.68;;;1.00;;
22843;SDS011;11588;51.178;4.852;2024-03-02T14:32:14;3.70;;;0.88;;
22843;SDS011;11588;51.178;4.852;2024-03-02T14:34:41;2.30;;;0.77;;
22843;SDS011;11588;51.178;4.852;2024-03-02T14:37:08;3.72;;;0.77;;
22843;SDS011;11588;51.178;4.852;2024-03-02T14:39:35;2.75;;;0.80;;
22843;SDS011;11588;51.178;4.852;2024-03-02T14:42:02;5.57;;;1.10;;
22843;SDS011;11588;51.178;4.852;2024-03-02T14:44:29;3.10;;;0.90;;
22843;SDS011;11588;51.178;4.852;2024-03-02T14:46:56;1.48;;;0.80;;
22843;SDS011;11588;51.178;4.852;2024-03-02T14:49:25;3.50;;;0.80;;
22843;SDS011;11588;51.178;4.852;2024-03-02T14:51:52;3.47;;;0.75;;
22843;SDS011;11588;51.178;4.852;2024-03-02T14:54:18;4.65;;;0.77;;
22843;SDS011;11588;51.178;4.852;2024-03-02T14:56:45;3.00;;;0.70;;
22843;SDS011;11588;51.178;4.852;2024-03-02T14:59:12;2.47;;;0.70;;
22843;SDS011;11588;51.178;4.852;2024-03-02T15:01:39;4.82;;;1.23;;
22843;SDS011;11588;51.178;4.852;2024-03-02T15:04:05;1.83;;;0.60;;
22843;SDS011;11588;51.178;4.852;2024-03-02T15:06:32;2.85;;;0.80;;